Time;durP1;ratioP1;P1;durP2;ratioP2;P2;SDS_P1;SDS_P2;PMS_P1;PMS_P2;Temp;Humidity;BMP_temperature;BMP_pressure;BME280_temperature;BME280_humidity;BME280_pressure;Samples;Min_cycle;Max_cycle;Signal;HPM_P1;HPM_P2
2022/07/30 00:00:40;;;;;;;14.45;6.20;;;16.30;99.90;;;;;;5071039;28;20502;-66
2022/07/30 00:03:05;;;;;;;14.45;7.43;;;16.30;99.90;;;;;;5036286;28;20040;-66
2022/07/30 00:05:31;;;;;;;18.95;7.38;;;16.30;99.90;;;;;;5051550;28;20045;-67
2022/07/30 00:07:57;;;;;;;20.85;7.50;;;16.30;99.90;;;;;;5049321;28;20414;-66
2022/07/30 00:10:26;;;;;;;17.08;8.00;;;16.30;99.90;;;;;;5069725;28;20502;-67
2022/07/30 00:12:53;;;;;;;19.70;8.40;;;16.30;99.90;;;;;;5071392;28;20041;-66
2022/07/30 00:15:19;;;;;;;13.80;8.35;;;16.20;99.90;;;;;;5064169;28;20033;-67
2022/07/30 00:17:45;;;;;;;10.93;7.72;;;16.20;99.90;;;;;;5049784;28;20040;-67
2022/07/30 00:20:10;;;;;;;15.15;8.32;;;16.20;99.90;;;;;;5070696;28;20128;-67
2022/07/30 00:22:39;;;;;;;12.20;7.97;;;16.10;99.90;;;;;;5075337;28;20116;-68
2022/07/30 00:25:05;;;;;;;14.52;8.07;;;16.10;99.90;;;;;;5073735;28;20127;-67
2022/07/30 00:27:33;;;;;;;13.02;7.32;;;16.10;99.90;;;;;;5071225;28;20084;-67
2022/07/30 00:30:00;;;;;;;10.05;7.55;;;16.00;99.90;;;;;;5057034;28;20905;-67
2022/07/30 00:32:26;;;;;;;11.68;7.60;;;16.00;99.90;;;;;;5074065;28;20044;-67
2022/07/30 00:34:52;;;;;;;17.05;8.68;;;16.00;99.90;;;;;;5068097;28;20091;-67
2022/07/30 00:37:18;;;;;;;13.70;7.63;;;16.00;99.90;;;;;;5056805;28;20524;-67
2022/07/30 00:39:43;;;;;;;13.45;8.52;;;15.90;99.90;;;;;;5055504;28;20052;-66
2022/07/30 00:42:09;;;;;;;13.95;8.88;;;15.90;99.90;;;;;;5059598;28;20757;-67
2022/07/30 00:44:35;;;;;;;15.30;8.80;;;15.90;99.90;;;;;;5063267;28;20474;-65
2022/07/30 00:47:00;;;;;;;15.48;9.48;;;15.90;99.90;;;;;;5068670;28;20048;-66
2022/07/30 00:49:26;;;;;;;13.30;8.30;;;15.90;99.90;;;;;;5054484;28;20495;-65
2022/07/30 00:51:52;;;;;;;15.45;8.98;;;15.90;99.90;;;;;;5054762;28;20403;-67
2022/07/30 00:54:19;;;;;;;15.82;8.00;;;15.90;99.90;;;;;;5054322;28;20396;-68
2022/07/30 00:56:46;;;;;;;15.50;9.75;;;15.80;99.90;;;;;;5068079;28;20048;-67
2022/07/30 00:59:12;;;;;;;14.80;9.10;;;15.80;99.90;;;;;;5035037;28;20052;-67
2022/07/30 01:01:38;;;;;;;16.27;9.95;;;15.80;99.90;;;;;;5054256;28;20326;-67
2022/07/30 01:04:10;;;;;;;17.02;10.43;;;15.80;99.90;;;;;;5069135;28;20044;-67
2022/07/30 01:06:37;;;;;;;12.57;9.05;;;15.70;99.90;;;;;;5065499;28;20103;-66
2022/07/30 01:09:02;;;;;;;14.82;9.15;;;15.70;99.90;;;;;;5055258;28;20084;-66
2022/07/30 01:11:36;;;;;;;17.08;9.77;;;15.70;99.90;;;;;;5062871;28;20125;-67
2022/07/30 01:14:06;;;;;;;15.27;10.10;;;15.70;99.90;;;;;;5055366;28;20512;-67
2022/07/30 01:16:33;;;;;;;18.02;8.70;;;15.70;99.90;;;;;;5054153;28;20045;-67
2022/07/30 01:21:58;;;;;;;17.30;10.18;;;15.70;99.90;;;;;;5074395;28;20064;-67
2022/07/30 01:24:35;;;;;;;18.33;10.25;;;15.60;99.90;;;;;;5055399;28;20501;-67
2022/07/30 01:27:01;;;;;;;16.10;9.85;;;15.60;99.90;;;;;;5073412;28;20056;-66
2022/07/30 01:29:29;;;;;;;17.80;9.77;;;15.60;99.90;;;;;;5036141;28;20044;-66
2022/07/30 01:31:58;;;;;;;;;;;15.60;99.90;;;;;;5053255;28;20094;-66
2022/07/30 01:34:29;;;;;;;14.80;9.00;;;15.50;99.90;;;;;;5055319;28;19931;-67
2022/07/30 01:36:57;;;;;;;16.52;9.25;;;15.50;99.90;;;;;;5074131;28;20044;-66
2022/07/30 01:39:25;;;;;;;;;;;15.50;99.90;;;;;;5039284;28;20431;-66
2022/07/30 01:41:53;;;;;;;15.95;9.25;;;15.50;99.90;;;;;;5068591;28;19924;-67
2022/07/30 01:44:20;;;;;;;14.52;9.30;;;15.50;99.90;;;;;;5072543;28;20548;-67
2022/07/30 01:46:47;;;;;;;17.75;10.15;;;15.40;99.90;;;;;;5055082;28;20845;-67
2022/07/30 01:49:15;;;;;;;14.07;10.13;;;15.40;99.90;;;;;;5055816;28;20119;-67
2022/07/30 01:51:42;;;;;;;13.77;9.13;;;15.40;99.90;;;;;;5073392;28;20119;-66
2022/07/30 01:54:11;;;;;;;15.93;9.90;;;15.40;99.90;;;;;;5053880;28;20451;-66
2022/07/30 01:56:39;;;;;;;12.85;9.00;;;15.40;99.90;;;;;;5053130;28;20048;-67
2022/07/30 01:59:08;;;;;;;12.57;8.68;;;15.30;99.90;;;;;;5037671;28;20126;-66
2022/07/30 02:01:34;;;;;;;12.77;8.60;;;15.30;99.90;;;;;;5064237;28;20040;-66
2022/07/30 02:04:01;;;;;;;16.40;9.32;;;15.30;99.90;;;;;;5053370;28;20398;-67
2022/07/30 02:06:50;;;;;;;13.80;9.85;;;15.30;99.90;;;;;;5056504;28;20122;-67
2022/07/30 02:09:27;;;;;;;18.75;9.25;;;15.30;99.90;;;;;;5060841;28;20056;-68
2022/07/30 02:14:52;;;;;;;12.93;8.85;;;15.30;99.90;;;;;;5062146;28;20044;-67
2022/07/30 02:17:23;;;;;;;13.85;8.48;;;15.20;99.90;;;;;;5054688;28;20045;-67
2022/07/30 02:19:56;;;;;;;15.48;9.55;;;15.20;99.90;;;;;;5072535;28;20048;-67
2022/07/30 02:22:24;;;;;;;13.63;8.95;;;15.20;99.90;;;;;;5069160;28;20460;-67
2022/07/30 02:24:52;;;;;;;18.08;11.52;;;15.20;99.90;;;;;;5035216;28;20125;-66
2022/07/30 02:27:30;;;;;;;19.42;11.73;;;15.20;99.90;;;;;;5035119;28;20084;-67
2022/07/30 02:29:57;;;;;;;;;;;15.20;99.90;;;;;;5065564;28;20048;-68
2022/07/30 02:32:25;;;;;;;18.67;11.00;;;15.20;99.90;;;;;;5072060;28;19982;-67
2022/07/30 02:34:56;;;;;;;20.15;9.77;;;15.10;99.90;;;;;;5068063;28;20056;-66
2022/07/30 02:37:23;;;;;;;13.98;9.75;;;15.20;99.90;;;;;;5038162;28;20048;-68
2022/07/30 02:39:50;;;;;;;13.77;9.52;;;15.20;99.90;;;;;;5049666;28;20059;-67
2022/07/30 02:42:18;;;;;;;13.13;9.63;;;15.10;99.90;;;;;;5034578;28;20048;-66
2022/07/30 02:44:44;;;;;;;16.15;10.18;;;15.10;99.90;;;;;;5037903;28;20090;-67
2022/07/30 02:47:12;;;;;;;12.35;9.25;;;15.10;99.90;;;;;;5072064;28;20522;-67
2022/07/30 02:49:40;;;;;;;13.40;9.25;;;15.10;99.90;;;;;;5072643;28;20083;-68
2022/07/30 02:52:11;;;;;;;14.13;9.85;;;15.10;99.90;;;;;;5063599;28;20196;-66
2022/07/30 02:54:40;;;;;;;11.68;9.35;;;15.10;99.90;;;;;;5071192;28;20040;-65
2022/07/30 02:57:07;;;;;;;10.20;8.02;;;15.10;99.90;;;;;;5062155;28;20041;-67
2022/07/30 02:59:35;;;;;;;13.57;8.80;;;15.10;99.90;;;;;;5044123;28;20051;-68
2022/07/30 03:02:03;;;;;;;11.63;8.55;;;15.10;99.90;;;;;;5033813;28;20503;-68
2022/07/30 03:04:30;;;;;;;;;;;15.10;99.90;;;;;;5052924;28;20090;-68
2022/07/30 03:06:58;;;;;;;13.20;7.82;;;15.10;99.90;;;;;;5050312;28;19920;-66
2022/07/30 03:09:25;;;;;;;14.25;8.85;;;15.10;99.90;;;;;;5070119;28;20040;-67
2022/07/30 03:11:52;;;;;;;12.85;8.55;;;15.00;99.90;;;;;;5072643;28;20055;-66
2022/07/30 03:14:18;;;;;;;12.90;8.88;;;15.00;99.90;;;;;;5071458;28;20040;-66
2022/07/30 03:16:53;;;;;;;19.20;8.55;;;15.10;99.90;;;;;;5060109;28;20041;-67
2022/07/30 03:19:21;;;;;;;15.75;8.82;;;15.00;99.90;;;;;;5052051;28;20043;-67
2022/07/30 03:21:49;;;;;;;18.02;9.88;;;15.00;99.90;;;;;;5051540;28;20045;-65
2022/07/30 03:24:16;;;;;;;15.80;9.77;;;15.00;99.90;;;;;;5048799;28;20036;-67
2022/07/30 03:26:43;;;;;;;13.83;9.57;;;15.10;99.90;;;;;;5034509;28;20292;-67
2022/07/30 03:29:10;;;;;;;10.43;9.10;;;15.00;99.90;;;;;;5041557;28;20040;-65
2022/07/30 03:31:38;;;;;;;14.32;9.90;;;15.10;99.90;;;;;;5071926;28;20063;-68
2022/07/30 03:34:05;;;;;;;16.45;10.70;;;15.10;99.90;;;;;;5067387;28;20037;-66
2022/07/30 03:36:37;;;;;;;12.98;9.68;;;15.10;99.90;;;;;;5052020;28;20041;-66
2022/07/30 03:39:04;;;;;;;15.23;10.63;;;15.00;99.90;;;;;;5052126;28;20053;-67
2022/07/30 03:41:30;;;;;;;15.23;10.95;;;15.00;99.90;;;;;;5064986;28;20044;-65
2022/07/30 03:43:56;;;;;;;23.13;10.60;;;15.00;99.90;;;;;;5046771;28;20060;-66
2022/07/30 03:46:23;;;;;;;16.90;11.30;;;15.00;99.90;;;;;;5053397;28;20045;-67
2022/07/30 03:48:51;;;;;;;17.42;11.07;;;15.00;99.90;;;;;;5053901;28;20406;-66
2022/07/30 03:51:17;;;;;;;14.93;11.13;;;14.90;99.90;;;;;;5070055;28;20493;-67
2022/07/30 03:53:43;;;;;;;15.43;10.65;;;14.90;99.90;;;;;;5052154;28;20049;-67
2022/07/30 03:56:10;;;;;;;14.18;11.07;;;14.90;99.90;;;;;;5036523;28;20048;-67
2022/07/30 03:58:37;;;;;;;16.92;10.57;;;14.90;99.90;;;;;;5043798;28;20113;-66
2022/07/30 04:01:03;;;;;;;18.15;11.60;;;14.90;99.90;;;;;;5043596;28;20057;-67
2022/07/30 04:03:31;;;;;;;14.00;10.15;;;14.90;99.90;;;;;;5055140;28;20125;-67
2022/07/30 04:05:57;;;;;;;15.18;11.18;;;14.90;99.90;;;;;;5055346;28;20041;-67
2022/07/30 04:08:23;;;;;;;22.50;11.75;;;14.90;99.90;;;;;;5056585;28;20051;-67
2022/07/30 04:10:52;;;;;;;19.67;11.25;;;14.90;99.90;;;;;;5050192;28;20048;-66
2022/07/30 04:13:18;;;;;;;15.57;10.60;;;14.90;99.90;;;;;;5067123;28;20128;-67
2022/07/30 04:16:10;;;;;;;23.38;11.63;;;14.90;99.90;;;;;;5056669;28;20136;-67
2022/07/30 04:18:41;;;;;;;17.33;11.23;;;14.90;99.90;;;;;;5065519;28;20088;-66
2022/07/30 04:21:11;;;;;;;14.43;10.82;;;14.90;99.90;;;;;;5063427;28;20487;-69
2022/07/30 04:23:39;;;;;;;17.88;11.85;;;14.90;99.90;;;;;;5024077;28;20044;-66
2022/07/30 04:26:08;;;;;;;22.20;12.82;;;15.00;99.90;;;;;;5056500;28;20136;-67
2022/07/30 04:28:35;;;;;;;19.33;12.10;;;15.00;99.90;;;;;;5063846;28;20171;-67
2022/07/30 04:31:02;;;;;;;16.77;11.07;;;15.00;99.90;;;;;;5069712;28;20056;-67
2022/07/30 04:33:29;;;;;;;20.70;12.50;;;15.00;99.90;;;;;;5054837;28;20128;-67
2022/07/30 04:35:54;;;;;;;18.73;12.27;;;15.00;99.90;;;;;;5055120;28;20036;-67
2022/07/30 04:38:21;;;;;;;18.75;12.50;;;15.00;99.90;;;;;;5055790;28;20402;-67
2022/07/30 04:40:47;;;;;;;14.80;11.98;;;15.00;99.90;;;;;;5059921;28;20040;-67
2022/07/30 04:43:12;;;;;;;18.30;12.35;;;15.10;99.90;;;;;;5038939;28;20130;-68
2022/07/30 04:45:40;;;;;;;18.30;11.57;;;15.10;99.90;;;;;;5059408;28;20475;-67
2022/07/30 04:48:07;;;;;;;17.73;11.88;;;15.10;99.90;;;;;;5054892;28;20375;-66
2022/07/30 04:50:38;;;;;;;20.20;12.63;;;15.10;99.90;;;;;;5054716;28;20148;-67
2022/07/30 04:53:05;;;;;;;18.58;11.50;;;14.50;99.90;;;;;;5038918;28;20048;-67
2022/07/30 04:55:32;;;;;;;18.48;12.38;;;15.10;99.90;;;;;;5022943;28;20047;-66
2022/07/30 04:57:58;;;;;;;19.30;11.52;;;15.20;99.90;;;;;;5055749;28;20073;-67
2022/07/30 05:00:24;;;;;;;18.70;11.65;;;15.20;99.90;;;;;;5074501;28;20041;-67
2022/07/30 05:02:52;;;;;;;21.98;12.77;;;15.20;99.90;;;;;;5073913;28;20491;-66
2022/07/30 05:05:18;;;;;;;15.73;11.63;;;15.20;99.90;;;;;;5073986;28;20044;-67
2022/07/30 05:07:45;;;;;;;17.67;10.57;;;15.30;99.90;;;;;;5073070;28;20044;-67
2022/07/30 05:10:12;;;;;;;19.02;10.95;;;15.30;99.90;;;;;;5051924;28;20068;-67
2022/07/30 05:12:38;;;;;;;18.67;10.43;;;15.30;99.90;;;;;;5046154;28;20089;-67
2022/07/30 05:15:05;;;;;;;15.38;11.18;;;15.40;99.90;;;;;;5071238;28;20538;-67
2022/07/30 05:17:31;;;;;;;17.23;11.60;;;15.50;99.90;;;;;;5046445;28;20499;-66
2022/07/30 05:19:56;;;;;;;19.80;11.23;;;15.50;99.90;;;;;;5019731;28;20049;-67
2022/07/30 05:22:24;;;;;;;16.35;10.82;;;15.60;99.90;;;;;;5036205;28;20509;-67
2022/07/30 05:24:50;;;;;;;13.05;10.88;;;15.60;99.90;;;;;;5053987;28;20045;-68
2022/07/30 05:27:16;;;;;;;20.35;13.27;;;15.60;99.90;;;;;;5062680;28;20513;-66
2022/07/30 05:29:41;;;;;;;18.85;13.18;;;15.60;99.90;;;;;;5069474;28;20406;-67
2022/07/30 05:32:07;;;;;;;23.00;14.57;;;15.80;99.90;;;;;;5055736;28;20080;-66
2022/07/30 05:34:32;;;;;;;21.42;12.80;;;15.90;99.90;;;;;;5071450;28;20414;-67
2022/07/30 05:36:58;;;;;;;16.23;12.82;;;16.00;99.90;;;;;;5052321;28;20434;-67
2022/07/30 05:39:24;;;;;;;21.35;12.95;;;16.10;99.90;;;;;;5035928;28;20044;-68
2022/07/30 05:41:50;;;;;;;18.38;13.18;;;16.20;99.90;;;;;;5057172;28;20119;-67
2022/07/30 05:44:15;;;;;;;18.33;13.15;;;16.30;99.90;;;;;;5032019;28;20112;-66
2022/07/30 05:46:51;;;;;;;20.65;12.85;;;16.30;99.90;;;;;;5053810;28;20132;-66
2022/07/30 05:49:17;;;;;;;21.95;12.38;;;16.40;99.90;;;;;;5053296;28;20394;-68
2022/07/30 05:51:42;;;;;;;19.65;12.13;;;16.50;99.90;;;;;;5058018;28;20045;-67
2022/07/30 05:54:08;;;;;;;22.90;12.52;;;16.60;99.90;;;;;;5059892;28;20048;-68
2022/07/30 05:56:34;;;;;;;14.18;12.20;;;16.60;99.90;;;;;;5072497;28;20028;-66
2022/07/30 05:59:01;;;;;;;20.25;12.48;;;16.70;99.90;;;;;;5054222;28;20503;-66
2022/07/30 06:01:27;;;;;;;17.77;12.65;;;16.80;99.90;;;;;;5034751;28;20120;-67
2022/07/30 06:03:52;;;;;;;18.92;12.30;;;16.90;99.90;;;;;;5053206;28;20120;-67
2022/07/30 06:06:21;;;;;;;18.17;11.73;;;17.00;99.90;;;;;;5049951;28;20044;-67
2022/07/30 06:08:48;;;;;;;16.98;12.27;;;17.00;99.90;;;;;;5072116;28;20051;-67
2022/07/30 06:11:14;;;;;;;15.30;12.02;;;17.10;99.90;;;;;;5072209;28;20115;-66
2022/07/30 06:13:40;;;;;;;16.92;12.68;;;17.20;99.90;;;;;;5056254;28;20179;-67
2022/07/30 06:16:08;;;;;;;18.15;11.75;;;17.20;99.90;;;;;;5053238;28;20084;-66
2022/07/30 06:18:34;;;;;;;15.15;11.35;;;17.30;99.90;;;;;;5052500;28;20045;-66
2022/07/30 06:21:00;;;;;;;16.63;11.43;;;17.40;99.90;;;;;;5053307;28;20402;-67
2022/07/30 06:23:25;;;;;;;16.60;11.80;;;17.40;99.90;;;;;;5052893;28;20191;-67
2022/07/30 06:25:54;;;;;;;18.77;11.55;;;17.60;99.90;;;;;;5052743;28;20048;-66
2022/07/30 06:28:23;;;;;;;16.35;11.18;;;17.60;99.90;;;;;;5053406;28;20127;-67
2022/07/30 06:30:48;;;;;;;17.70;11.43;;;17.70;99.90;;;;;;5061104;28;20056;-65
2022/07/30 06:33:15;;;;;;;18.55;12.07;;;17.80;99.90;;;;;;5052813;28;20086;-67
2022/07/30 06:35:41;;;;;;;16.10;10.98;;;17.90;99.90;;;;;;5067465;28;20044;-67
2022/07/30 06:38:07;;;;;;;15.75;11.68;;;18.00;99.90;;;;;;5038309;28;20075;-68
2022/07/30 06:40:32;;;;;;;17.70;11.85;;;18.20;99.90;;;;;;5071405;28;20036;-66
2022/07/30 06:42:58;;;;;;;14.85;10.40;;;18.30;99.90;;;;;;5057199;28;20040;-66
2022/07/30 06:45:24;;;;;;;15.23;10.50;;;18.50;99.90;;;;;;5054697;28;20086;-66
2022/07/30 06:47:50;;;;;;;17.48;10.55;;;18.70;99.90;;;;;;5069547;28;20099;-66
2022/07/30 06:50:17;;;;;;;18.83;10.27;;;18.90;99.90;;;;;;5038367;28;20162;-65
2022/07/30 06:52:43;;;;;;;21.73;10.23;;;19.00;99.90;;;;;;5054610;28;20063;-66
2022/07/30 06:55:09;;;;;;;16.48;11.13;;;19.10;99.90;;;;;;5058779;28;20049;-66
2022/07/30 06:57:35;;;;;;;16.58;10.48;;;19.20;99.90;;;;;;5068659;28;20648;-67
2022/07/30 07:00:00;;;;;;;22.23;10.20;;;19.40;99.90;;;;;;5039242;28;20040;-66
2022/07/30 07:02:26;;;;;;;21.13;10.43;;;19.40;99.90;;;;;;5052338;28;20376;-66
2022/07/30 07:04:52;;;;;;;20.63;10.80;;;19.50;99.90;;;;;;5065027;28;20063;-67
2022/07/30 07:07:18;;;;;;;14.60;9.57;;;19.60;99.90;;;;;;5071271;28;20044;-66
2022/07/30 07:09:43;;;;;;;19.98;10.13;;;19.70;99.90;;;;;;5066651;28;20078;-67
2022/07/30 07:12:09;;;;;;;16.25;9.63;;;19.80;99.90;;;;;;5064978;28;20055;-66
2022/07/30 07:14:36;;;;;;;17.98;9.90;;;19.80;99.90;;;;;;5054402;28;20143;-67
2022/07/30 07:17:02;;;;;;;21.00;9.67;;;19.90;99.90;;;;;;5065646;28;20414;-66
2022/07/30 07:19:28;;;;;;;16.15;9.40;;;20.00;99.90;;;;;;5034008;28;20045;-68
2022/07/30 07:21:53;;;;;;;21.25;9.38;;;20.00;99.90;;;;;;5051562;28;20487;-66
2022/07/30 07:24:19;;;;;;;18.27;8.70;;;20.10;99.90;;;;;;5063091;28;20043;-67
2022/07/30 07:26:45;;;;;;;16.98;9.20;;;20.20;99.90;;;;;;5070881;28;20040;-67
2022/07/30 07:29:11;;;;;;;17.00;9.55;;;20.30;99.90;;;;;;5068662;28;20128;-66
2022/07/30 07:31:36;;;;;;;16.52;9.18;;;20.40;99.90;;;;;;5037696;28;20132;-68
2022/07/30 07:34:02;;;;;;;14.07;9.27;;;20.50;99.90;;;;;;5056326;28;20079;-66
2022/07/30 07:36:35;;;;;;;16.80;8.10;;;20.50;99.90;;;;;;5054977;28;20041;-67
2022/07/30 07:39:00;;;;;;;15.05;8.80;;;20.50;99.90;;;;;;5021466;28;20053;-65
2022/07/30 07:41:29;;;;;;;13.70;8.35;;;20.70;99.90;;;;;;5058746;28;20364;-68
2022/07/30 07:43:54;;;;;;;14.02;7.50;;;20.70;99.90;;;;;;5070270;28;20094;-67
2022/07/30 07:46:20;;;;;;;12.48;7.70;;;20.80;99.90;;;;;;5067276;28;20438;-66
2022/07/30 07:48:46;;;;;;;15.93;7.25;;;21.00;99.90;;;;;;5055319;28;20657;-67
2022/07/30 07:51:11;;;;;;;13.82;7.75;;;21.10;99.90;;;;;;5055816;28;20048;-66
2022/07/30 07:53:37;;;;;;;13.63;6.78;;;21.30;99.90;;;;;;5037755;28;20053;-65
2022/07/30 07:56:03;;;;;;;15.75;8.05;;;21.30;99.90;;;;;;5038720;28;20394;-67
2022/07/30 07:58:29;;;;;;;16.10;7.68;;;21.50;99.90;;;;;;5033945;28;20049;-67
2022/07/30 08:00:54;;;;;;;12.88;8.18;;;21.60;99.90;;;;;;5057974;28;20115;-65
2022/07/30 08:03:20;;;;;;;14.93;7.40;;;21.80;99.90;;;;;;5075190;28;20040;-65
2022/07/30 08:05:48;;;;;;;11.70;7.30;;;21.80;99.90;;;;;;5039481;28;20749;-70
2022/07/30 08:08:14;;;;;;;14.63;7.03;;;21.90;99.90;;;;;;5074867;28;20090;-66
2022/07/30 08:10:39;;;;;;;11.35;6.13;;;21.90;99.90;;;;;;5075409;28;20557;-69
2022/07/30 08:13:05;;;;;;;15.98;7.35;;;22.00;99.90;;;;;;5072992;28;20044;-68
2022/07/30 08:15:31;;;;;;;10.65;6.07;;;22.10;99.90;;;;;;5065371;28;20299;-66
2022/07/30 08:17:57;;;;;;;17.88;6.70;;;22.20;99.90;;;;;;5055063;28;20072;-65
2022/07/30 08:20:25;;;;;;;11.50;5.85;;;22.30;99.90;;;;;;5055199;28;20399;-66
2022/07/30 08:22:51;;;;;;;10.35;5.65;;;22.40;99.90;;;;;;5037529;28;20037;-67
2022/07/30 08:25:18;;;;;;;9.45;5.53;;;22.50;99.90;;;;;;5055323;28;20188;-66
2022/07/30 08:27:44;;;;;;;9.30;5.30;;;22.30;99.90;;;;;;5067642;28;20557;-67
2022/07/30 08:30:10;;;;;;;11.27;5.32;;;22.40;99.90;;;;;;5040014;28;20064;-67
2022/07/30 08:32:40;;;;;;;12.18;4.97;;;22.50;99.90;;;;;;5058999;28;20055;-66
2022/07/30 08:35:09;;;;;;;13.75;5.53;;;22.80;99.90;;;;;;5036773;28;20503;-67
2022/07/30 08:37:39;;;;;;;11.23;4.88;;;22.80;99.90;;;;;;5055576;28;20037;-64
2022/07/30 08:40:09;;;;;;;10.23;4.75;;;23.00;99.90;;;;;;5054722;28;20049;-66
2022/07/30 08:42:37;;;;;;;9.05;4.82;;;23.20;99.90;;;;;;5067668;28;20040;-66
2022/07/30 08:45:05;;;;;;;14.13;5.10;;;23.30;99.90;;;;;;5040024;28;20459;-68
2022/07/30 08:47:33;;;;;;;13.18;4.95;;;23.20;99.90;;;;;;5059262;28;20131;-66
2022/07/30 08:50:05;;;;;;;;;;;23.10;99.90;;;;;;5054858;28;20120;-65
2022/07/30 08:52:34;;;;;;;8.30;4.45;;;23.10;99.90;;;;;;5037247;28;19921;-66
2022/07/30 08:55:03;;;;;;;10.50;5.05;;;23.30;99.90;;;;;;5052921;28;20100;-66
2022/07/30 08:57:33;;;;;;;8.80;4.72;;;23.50;99.90;;;;;;5035805;28;20124;-67
2022/07/30 08:59:59;;;;;;;14.05;4.60;;;23.60;99.90;;;;;;5039381;28;20055;-66
2022/07/30 09:02:25;;;;;;;8.68;4.20;;;23.50;99.90;;;;;;5070332;28;20048;-66
2022/07/30 09:04:51;;;;;;;8.48;3.70;;;23.30;99.90;;;;;;5036703;28;20040;-67
2022/07/30 09:07:17;;;;;;;8.32;3.97;;;23.10;99.90;;;;;;5054591;28;20102;-65
2022/07/30 09:09:43;;;;;;;12.10;4.30;;;23.20;99.90;;;;;;5065656;28;20055;-69
2022/07/30 09:12:35;;;;;;;8.40;4.10;;;23.30;99.90;;;;;;5072553;28;20036;-66
2022/07/30 09:15:17;;;;;;;8.98;3.90;;;23.50;99.90;;;;;;5055713;28;20052;-65
2022/07/30 09:17:53;;;;;;;11.27;4.55;;;23.70;99.90;;;;;;5056027;28;20067;-66
2022/07/30 09:20:21;;;;;;;10.95;4.50;;;23.70;99.90;;;;;;5058417;28;20515;-66
2022/07/30 09:22:54;;;;;;;14.25;4.43;;;23.40;99.90;;;;;;5036574;28;20041;-65
2022/07/30 09:25:43;;;;;;;9.05;3.45;;;23.40;99.90;;;;;;5053894;28;20045;-66
2022/07/30 09:28:10;;;;;;;7.60;3.08;;;23.40;99.90;;;;;;5053882;28;20060;-66
2022/07/30 09:30:54;;;;;;;9.77;3.42;;;23.50;99.90;;;;;;5053503;28;20055;-66
2022/07/30 09:33:34;;;;;;;11.48;4.07;;;23.80;99.90;;;;;;5035652;28;20087;-66
2022/07/30 09:36:00;;;;;;;9.70;3.60;;;24.00;99.90;;;;;;5055726;28;20124;-65
2022/07/30 09:38:27;;;;;;;14.30;4.28;;;24.10;99.90;;;;;;5065917;28;20558;-67
2022/07/30 09:40:54;;;;;;;10.73;3.60;;;24.20;99.40;;;;;;5038656;28;20048;-65
2022/07/30 09:43:20;;;;;;;11.00;3.50;;;24.20;98.70;;;;;;5075269;28;20047;-67
2022/07/30 09:45:57;;;;;;;9.27;3.28;;;24.20;98.80;;;;;;5073737;28;20049;-66
2022/07/30 09:48:25;;;;;;;9.85;3.38;;;24.20;97.80;;;;;;5054881;28;20535;-66
2022/07/30 09:50:51;;;;;;;11.48;3.60;;;24.10;98.40;;;;;;5053158;28;20487;-68
2022/07/30 09:53:21;;;;;;;7.82;3.50;;;24.20;98.70;;;;;;5035108;28;20411;-66
2022/07/30 09:55:50;;;;;;;12.10;3.60;;;24.40;99.10;;;;;;5033256;28;20486;-66
2022/07/30 09:58:16;;;;;;;13.48;3.17;;;24.50;98.40;;;;;;5054283;28;20529;-66
2022/07/30 10:00:42;;;;;;;12.75;3.47;;;24.70;98.50;;;;;;5061563;28;20340;-66
2022/07/30 10:03:19;;;;;;;8.93;2.85;;;24.80;97.40;;;;;;5053583;28;20072;-65
2022/07/30 10:05:59;;;;;;;16.92;3.70;;;24.90;98.00;;;;;;5034969;28;20081;-65
2022/07/30 10:08:44;;;;;;;10.68;3.20;;;25.10;97.10;;;;;;5072626;28;20041;-67
2022/07/30 10:11:24;;;;;;;6.78;2.88;;;25.10;97.40;;;;;;5070233;28;20425;-68
2022/07/30 10:13:56;;;;;;;9.70;3.25;;;25.20;97.50;;;;;;5049646;28;20045;-66
2022/07/30 10:16:25;;;;;;;10.00;2.88;;;25.30;96.40;;;;;;5067037;28;20036;-66
2022/07/30 10:18:51;;;;;;;8.85;2.92;;;25.30;95.60;;;;;;5072523;28;20428;-65
2022/07/30 10:21:20;;;;;;;9.00;3.30;;;25.30;96.50;;;;;;5072869;28;20056;-65
2022/07/30 10:23:46;;;;;;;12.50;3.13;;;25.50;96.60;;;;;;5061874;28;20398;-64
2022/07/30 10:26:12;;;;;;;8.95;2.72;;;25.70;96.00;;;;;;5054570;28;20510;-66
2022/07/30 10:28:40;;;;;;;9.15;3.00;;;25.90;96.20;;;;;;5035738;28;20048;-66
2022/07/30 10:31:06;;;;;;;8.48;3.10;;;26.10;94.50;;;;;;5072461;28;20052;-65
2022/07/30 10:33:36;;;;;;;12.80;3.65;;;26.10;94.40;;;;;;5072202;28;20562;-65
2022/07/30 10:36:02;;;;;;;12.27;2.97;;;26.10;94.20;;;;;;5040367;28;20045;-66
2022/07/30 10:38:31;;;;;;;5.95;2.90;;;26.20;93.60;;;;;;5034643;28;20453;-66
2022/07/30 10:41:22;;;;;;;8.05;2.90;;;26.00;93.90;;;;;;5036680;28;20049;-66
2022/07/30 10:44:12;;;;;;;8.23;3.03;;;26.00;93.60;;;;;;5071366;28;20048;-65
2022/07/30 10:47:01;;;;;;;9.77;2.70;;;26.10;93.20;;;;;;5072392;28;20051;-67
2022/07/30 10:49:27;;;;;;;8.20;2.63;;;26.40;92.40;;;;;;5037317;28;20064;-65
2022/07/30 10:51:55;;;;;;;14.68;3.70;;;26.60;93.00;;;;;;5052324;28;20045;-66
2022/07/30 10:54:33;;;;;;;10.68;3.55;;;26.90;91.40;;;;;;5055856;28;20396;-66
2022/07/30 10:57:05;;;;;;;8.77;2.78;;;27.00;91.60;;;;;;5052434;28;20659;-66
2022/07/30 10:59:54;;;;;;;8.50;2.75;;;27.20;92.00;;;;;;5072502;28;20378;-67
2022/07/30 11:02:21;;;;;;;6.68;2.30;;;27.50;91.00;;;;;;5050910;28;20448;-64
2022/07/30 11:04:47;;;;;;;;;;;27.70;91.80;;;;;;5052274;28;20041;-66
2022/07/30 11:07:31;;;;;;;5.40;2.17;;;28.10;91.10;;;;;;5052615;28;19921;-66
2022/07/30 11:10:00;;;;;;;8.90;2.70;;;28.10;89.30;;;;;;5052906;28;20434;-66
2022/07/30 11:12:41;;;;;;;8.38;2.67;;;27.80;89.20;;;;;;5069284;28;20032;-66
2022/07/30 11:15:16;;;;;;;5.07;2.35;;;27.60;88.70;;;;;;5070285;28;20372;-67
2022/07/30 11:18:00;;;;;;;8.18;2.47;;;27.70;89.80;;;;;;5052040;28;20041;-66
2022/07/30 11:20:30;;;;;;;5.28;2.65;;;27.80;87.80;;;;;;5051971;28;20055;-67
2022/07/30 11:23:11;;;;;;;7.38;2.42;;;27.90;88.00;;;;;;5051813;28;20041;-66
2022/07/30 11:25:37;;;;;;;6.78;2.72;;;27.80;87.80;;;;;;5041071;28;20048;-67
2022/07/30 11:28:03;;;;;;;9.97;3.67;;;27.70;88.40;;;;;;5070379;28;20040;-65
2022/07/30 11:30:29;;;;;;;6.95;2.28;;;27.80;88.70;;;;;;5071824;28;20060;-66
2022/07/30 11:33:16;;;;;;;7.05;2.75;;;28.00;87.10;;;;;;5067043;28;20057;-66
2022/07/30 11:35:42;;;;;;;8.50;2.60;;;28.10;83.70;;;;;;5041183;28;20076;-67
2022/07/30 11:38:14;;;;;;;8.77;3.28;;;28.00;85.30;;;;;;5033743;28;20094;-66
2022/07/30 11:40:49;;;;;;;9.57;2.67;;;27.60;85.90;;;;;;5049941;28;20037;-69
2022/07/30 11:43:24;;;;;;;7.57;2.45;;;27.50;85.30;;;;;;5033679;28;20048;-65
2022/07/30 11:46:13;;;;;;;6.55;2.60;;;27.50;86.00;;;;;;5060354;28;20053;-66
2022/07/30 11:48:40;;;;;;;7.43;2.67;;;27.60;87.00;;;;;;5070680;28;20123;-66
2022/07/30 11:51:09;;;;;;;8.77;2.65;;;27.70;86.30;;;;;;5069943;28;20033;-66
2022/07/30 11:53:35;;;;;;;6.82;2.00;;;27.90;85.50;;;;;;5017413;28;20044;-64
2022/07/30 11:56:02;;;;;;;10.70;2.90;;;27.80;83.90;;;;;;5052215;28;20048;-67
2022/07/30 11:58:31;;;;;;;6.30;2.30;;;27.50;83.60;;;;;;5063685;28;20099;-65
2022/07/30 12:01:13;;;;;;;6.70;2.20;;;27.50;83.00;;;;;;5071130;28;20409;-65
2022/07/30 12:03:41;;;;;;;5.60;2.00;;;27.60;85.00;;;;;;5057238;28;20454;-67
2022/07/30 12:06:12;;;;;;;6.80;2.65;;;27.80;83.60;;;;;;5051645;28;20045;-68
2022/07/30 12:08:40;;;;;;;5.53;2.17;;;27.80;79.50;;;;;;5051609;28;20037;-65
2022/07/30 12:11:06;;;;;;;5.80;2.30;;;27.70;81.50;;;;;;5051698;28;20048;-65
2022/07/30 12:13:32;;;;;;;5.35;2.22;;;27.60;80.60;;;;;;5057726;28;20427;-66
2022/07/30 12:15:58;;;;;;;7.25;2.40;;;27.40;81.30;;;;;;5068625;28;20033;-65
2022/07/30 12:18:29;;;;;;;5.20;2.20;;;27.20;83.20;;;;;;5050396;28;20186;-66
2022/07/30 12:21:01;;;;;;;4.95;1.98;;;27.40;83.30;;;;;;5055552;28;20048;-65
2022/07/30 12:23:28;;;;;;;5.35;1.90;;;27.60;82.60;;;;;;5044323;28;20053;-66
2022/07/30 12:25:54;;;;;;;6.47;2.30;;;27.90;82.40;;;;;;5045668;28;20041;-65
2022/07/30 12:28:23;;;;;;;6.60;2.30;;;28.10;80.50;;;;;;5055566;28;20394;-64
2022/07/30 12:30:49;;;;;;;7.55;2.70;;;28.00;80.00;;;;;;5070409;28;20142;-66
2022/07/30 12:33:15;;;;;;;5.50;2.20;;;27.80;79.90;;;;;;5053008;28;20175;-65
2022/07/30 12:35:49;;;;;;;6.28;2.20;;;27.70;80.00;;;;;;5056503;28;20496;-65
2022/07/30 12:38:16;;;;;;;6.53;2.20;;;27.80;80.70;;;;;;5071856;28;20678;-64
2022/07/30 12:40:52;;;;;;;8.43;2.53;;;28.00;81.10;;;;;;5069115;28;20052;-66
2022/07/30 12:43:38;;;;;;;8.80;3.00;;;28.10;79.90;;;;;;5031613;28;21503;-65
2022/07/30 12:46:04;;;;;;;10.98;2.38;;;27.70;78.20;;;;;;5074447;28;20036;-64
2022/07/30 12:48:29;;;;;;;6.13;2.05;;;27.40;79.80;;;;;;5056692;28;20052;-66
2022/07/30 12:51:07;;;;;;;6.88;2.17;;;27.50;80.20;;;;;;5055046;28;20043;-66